sensor_id;sensor_type;location;lat;lon;timestamp;P1;durP1;ratioP1;P2;durP2;ratioP2
45107;SDS011;30869;51.188;6.556;2022-11-30T00:00:51;74.47;;;25.70;;
45107;SDS011;30869;51.188;6.556;2022-11-30T00:03:17;124.05;;;35.67;;
45107;SDS011;30869;51.188;6.556;2022-11-30T00:05:43;101.72;;;30.25;;
45107;SDS011;30869;51.188;6.556;2022-11-30T00:08:08;132.55;;;38.38;;
45107;SDS011;30869;51.188;6.556;2022-11-30T00:10:34;138.43;;;41.17;;
45107;SDS011;30869;51.188;6.556;2022-11-30T00:13:01;125.55;;;36.47;;
45107;SDS011;30869;51.188;6.556;2022-11-30T00:15:27;154.77;;;41.25;;
45107;SDS011;30869;51.188;6.556;2022-11-30T00:17:55;115.93;;;34.05;;
45107;SDS011;30869;51.188;6.556;2022-11-30T00:20:21;117.20;;;33.42;;
45107;SDS011;30869;51.188;6.556;2022-11-30T00:22:47;164.70;;;42.85;;
45107;SDS011;30869;51.188;6.556;2022-11-30T00:25:13;160.88;;;41.47;;
45107;SDS011;30869;51.188;6.556;2022-11-30T00:27:39;151.50;;;40.72;;
45107;SDS011;30869;51.188;6.556;2022-11-30T00:30:04;150.48;;;40.78;;
45107;SDS011;30869;51.188;6.556;2022-11-30T00:32:31;98.70;;;29.83;;
45107;SDS011;30869;51.188;6.556;2022-11-30T00:34:58;127.72;;;33.63;;
45107;SDS011;30869;51.188;6.556;2022-11-30T00:37:23;106.00;;;30.58;;
45107;SDS011;30869;51.188;6.556;2022-11-30T00:39:49;155.57;;;41.05;;
45107;SDS011;30869;51.188;6.556;2022-11-30T00:42:14;121.13;;;32.95;;
45107;SDS011;30869;51.188;6.556;2022-11-30T00:44:40;177.82;;;45.22;;
45107;SDS011;30869;51.188;6.556;2022-11-30T00:47:06;126.88;;;35.05;;
45107;SDS011;30869;51.188;6.556;2022-11-30T00:49:31;183.50;;;43.30;;
45107;SDS011;30869;51.188;6.556;2022-11-30T00:52:00;135.65;;;34.80;;
45107;SDS011;30869;51.188;6.556;2022-11-30T00:54:26;158.80;;;42.50;;
45107;SDS011;30869;51.188;6.556;2022-11-30T00:56:52;166.88;;;40.78;;
45107;SDS011;30869;51.188;6.556;2022-11-30T00:59:18;92.68;;;29.27;;
45107;SDS011;30869;51.188;6.556;2022-11-30T01:01:44;156.57;;;39.70;;
45107;SDS011;30869;51.188;6.556;2022-11-30T01:04:10;154.48;;;43.28;;
45107;SDS011;30869;51.188;6.556;2022-11-30T01:06:36;122.45;;;37.38;;
45107;SDS011;30869;51.188;6.556;2022-11-30T01:09:02;177.70;;;43.90;;
45107;SDS011;30869;51.188;6.556;2022-11-30T01:11:29;130.73;;;33.47;;
45107;SDS011;30869;51.188;6.556;2022-11-30T01:13:56;80.82;;;24.05;;
45107;SDS011;30869;51.188;6.556;2022-11-30T01:16:27;79.28;;;25.92;;
45107;SDS011;30869;51.188;6.556;2022-11-30T01:18:54;52.08;;;21.00;;
45107;SDS011;30869;51.188;6.556;2022-11-30T01:21:21;138.00;;;37.38;;
45107;SDS011;30869;51.188;6.556;2022-11-30T01:23:48;142.95;;;39.53;;
45107;SDS011;30869;51.188;6.556;2022-11-30T01:26:14;98.03;;;29.10;;
45107;SDS011;30869;51.188;6.556;2022-11-30T01:28:41;72.00;;;23.45;;
45107;SDS011;30869;51.188;6.556;2022-11-30T01:31:11;149.18;;;40.85;;
45107;SDS011;30869;51.188;6.556;2022-11-30T01:33:38;101.93;;;29.92;;
45107;SDS011;30869;51.188;6.556;2022-11-30T01:36:14;140.18;;;35.63;;
45107;SDS011;30869;51.188;6.556;2022-11-30T01:38:52;93.10;;;26.33;;
45107;SDS011;30869;51.188;6.556;2022-11-30T01:41:21;61.63;;;20.10;;
45107;SDS011;30869;51.188;6.556;2022-11-30T01:43:52;135.40;;;38.13;;
45107;SDS011;30869;51.188;6.556;2022-11-30T01:51:37;141.63;;;37.88;;
45107;SDS011;30869;51.188;6.556;2022-11-30T01:54:10;143.38;;;38.13;;
45107;SDS011;30869;51.188;6.556;2022-11-30T01:56:40;130.65;;;35.88;;
45107;SDS011;30869;51.188;6.556;2022-11-30T02:01:42;135.38;;;35.58;;
45107;SDS011;30869;51.188;6.556;2022-11-30T02:04:10;95.30;;;27.88;;
45107;SDS011;30869;51.188;6.556;2022-11-30T02:06:52;89.90;;;27.83;;
45107;SDS011;30869;51.188;6.556;2022-11-30T02:09:19;131.23;;;37.97;;
45107;SDS011;30869;51.188;6.556;2022-11-30T02:11:47;84.25;;;24.50;;
45107;SDS011;30869;51.188;6.556;2022-11-30T02:31:05;172.95;;;40.08;;
45107;SDS011;30869;51.188;6.556;2022-11-30T02:33:35;178.55;;;41.30;;
45107;SDS011;30869;51.188;6.556;2022-11-30T02:36:03;188.45;;;41.80;;
45107;SDS011;30869;51.188;6.556;2022-11-30T02:38:30;154.85;;;35.05;;
45107;SDS011;30869;51.188;6.556;2022-11-30T02:40:56;158.82;;;41.33;;
45107;SDS011;30869;51.188;6.556;2022-11-30T02:43:23;204.02;;;39.80;;
45107;SDS011;30869;51.188;6.556;2022-11-30T02:48:30;145.23;;;36.85;;
45107;SDS011;30869;51.188;6.556;2022-11-30T02:51:03;258.52;;;44.65;;
45107;SDS011;30869;51.188;6.556;2022-11-30T02:53:33;174.38;;;34.28;;
45107;SDS011;30869;51.188;6.556;2022-11-30T02:55:59;232.15;;;40.88;;
45107;SDS011;30869;51.188;6.556;2022-11-30T02:58:25;86.38;;;24.98;;
45107;SDS011;30869;51.188;6.556;2022-11-30T03:00:50;100.95;;;29.73;;
45107;SDS011;30869;51.188;6.556;2022-11-30T03:03:16;182.73;;;36.85;;
45107;SDS011;30869;51.188;6.556;2022-11-30T03:05:42;121.78;;;33.03;;
45107;SDS011;30869;51.188;6.556;2022-11-30T03:08:07;153.70;;;38.38;;
45107;SDS011;30869;51.188;6.556;2022-11-30T03:10:33;88.82;;;26.48;;
45107;SDS011;30869;51.188;6.556;2022-11-30T03:12:59;65.13;;;21.02;;
45107;SDS011;30869;51.188;6.556;2022-11-30T03:15:25;54.00;;;20.13;;
45107;SDS011;30869;51.188;6.556;2022-11-30T03:17:51;60.30;;;22.15;;
45107;SDS011;30869;51.188;6.556;2022-11-30T03:20:17;75.68;;;24.85;;
45107;SDS011;30869;51.188;6.556;2022-11-30T03:22:43;58.67;;;21.88;;
45107;SDS011;30869;51.188;6.556;2022-11-30T03:25:08;55.13;;;21.45;;
45107;SDS011;30869;51.188;6.556;2022-11-30T03:27:34;48.65;;;19.20;;
45107;SDS011;30869;51.188;6.556;2022-11-30T03:30:00;62.05;;;24.60;;
45107;SDS011;30869;51.188;6.556;2022-11-30T03:32:25;45.78;;;21.27;;
45107;SDS011;30869;51.188;6.556;2022-11-30T03:34:51;56.45;;;24.17;;
45107;SDS011;30869;51.188;6.556;2022-11-30T03:37:17;49.33;;;23.05;;
45107;SDS011;30869;51.188;6.556;2022-11-30T03:39:43;52.63;;;20.90;;
45107;SDS011;30869;51.188;6.556;2022-11-30T03:42:08;37.33;;;15.98;;
45107;SDS011;30869;51.188;6.556;2022-11-30T03:44:34;45.70;;;17.08;;
45107;SDS011;30869;51.188;6.556;2022-11-30T03:46:59;48.42;;;20.05;;
45107;SDS011;30869;51.188;6.556;2022-11-30T03:49:25;50.40;;;23.40;;
45107;SDS011;30869;51.188;6.556;2022-11-30T03:51:51;46.30;;;18.88;;
45107;SDS011;30869;51.188;6.556;2022-11-30T03:54:16;42.35;;;15.80;;
45107;SDS011;30869;51.188;6.556;2022-11-30T03:56:42;50.75;;;22.48;;
45107;SDS011;30869;51.188;6.556;2022-11-30T03:59:07;39.33;;;17.10;;
45107;SDS011;30869;51.188;6.556;2022-11-30T04:01:33;45.65;;;20.77;;
45107;SDS011;30869;51.188;6.556;2022-11-30T04:04:00;45.20;;;18.67;;
45107;SDS011;30869;51.188;6.556;2022-11-30T04:06:26;43.60;;;19.55;;
45107;SDS011;30869;51.188;6.556;2022-11-30T04:08:52;52.67;;;25.98;;
45107;SDS011;30869;51.188;6.556;2022-11-30T04:11:17;44.78;;;19.15;;
45107;SDS011;30869;51.188;6.556;2022-11-30T04:13:43;50.30;;;23.33;;
45107;SDS011;30869;51.188;6.556;2022-11-30T04:16:09;67.78;;;27.90;;
45107;SDS011;30869;51.188;6.556;2022-11-30T04:18:35;42.97;;;18.50;;
45107;SDS011;30869;51.188;6.556;2022-11-30T04:21:02;59.20;;;29.17;;
45107;SDS011;30869;51.188;6.556;2022-11-30T04:23:29;69.65;;;31.02;;
45107;SDS011;30869;51.188;6.556;2022-11-30T04:25:56;42.20;;;18.67;;
45107;SDS011;30869;51.188;6.556;2022-11-30T04:28:22;65.22;;;30.15;;
45107;SDS011;30869;51.188;6.556;2022-11-30T04:30:48;43.28;;;19.38;;
45107;SDS011;30869;51.188;6.556;2022-11-30T04:33:13;40.67;;;17.63;;
45107;SDS011;30869;51.188;6.556;2022-11-30T04:35:41;40.97;;;18.98;;
45107;SDS011;30869;51.188;6.556;2022-11-30T04:38:08;51.63;;;23.73;;
45107;SDS011;30869;51.188;6.556;2022-11-30T04:40:37;37.00;;;17.88;;
45107;SDS011;30869;51.188;6.556;2022-11-30T04:43:07;47.38;;;20.60;;
45107;SDS011;30869;51.188;6.556;2022-11-30T04:45:34;36.20;;;17.98;;
45107;SDS011;30869;51.188;6.556;2022-11-30T04:48:00;40.40;;;18.25;;
45107;SDS011;30869;51.188;6.556;2022-11-30T04:50:25;41.42;;;18.17;;
45107;SDS011;30869;51.188;6.556;2022-11-30T04:52:51;42.13;;;19.35;;
45107;SDS011;30869;51.188;6.556;2022-11-30T04:55:17;41.90;;;17.52;;
45107;SDS011;30869;51.188;6.556;2022-11-30T04:57:44;38.47;;;17.98;;
45107;SDS011;30869;51.188;6.556;2022-11-30T05:00:10;36.13;;;16.60;;
45107;SDS011;30869;51.188;6.556;2022-11-30T05:02:37;37.88;;;17.95;;
45107;SDS011;30869;51.188;6.556;2022-11-30T05:05:03;35.40;;;17.00;;
45107;SDS011;30869;51.188;6.556;2022-11-30T05:07:28;35.17;;;16.55;;
45107;SDS011;30869;51.188;6.556;2022-11-30T05:09:54;52.15;;;26.77;;
45107;SDS011;30869;51.188;6.556;2022-11-30T05:12:20;36.97;;;17.00;;
45107;SDS011;30869;51.188;6.556;2022-11-30T05:14:45;60.88;;;28.38;;
45107;SDS011;30869;51.188;6.556;2022-11-30T05:17:11;36.85;;;18.10;;
45107;SDS011;30869;51.188;6.556;2022-11-30T05:19:36;39.15;;;16.15;;
45107;SDS011;30869;51.188;6.556;2022-11-30T05:22:02;43.58;;;18.88;;
45107;SDS011;30869;51.188;6.556;2022-11-30T05:24:28;48.08;;;22.83;;
45107;SDS011;30869;51.188;6.556;2022-11-30T05:26:54;40.03;;;18.85;;
45107;SDS011;30869;51.188;6.556;2022-11-30T05:29:20;44.95;;;21.60;;
45107;SDS011;30869;51.188;6.556;2022-11-30T05:31:45;54.45;;;26.77;;
45107;SDS011;30869;51.188;6.556;2022-11-30T05:34:11;35.13;;;18.38;;
45107;SDS011;30869;51.188;6.556;2022-11-30T05:36:37;35.75;;;17.15;;
45107;SDS011;30869;51.188;6.556;2022-11-30T05:39:02;38.95;;;18.35;;
45107;SDS011;30869;51.188;6.556;2022-11-30T05:41:28;38.95;;;19.10;;
45107;SDS011;30869;51.188;6.556;2022-11-30T05:43:54;41.45;;;21.67;;
45107;SDS011;30869;51.188;6.556;2022-11-30T05:46:20;31.40;;;16.17;;
45107;SDS011;30869;51.188;6.556;2022-11-30T05:48:46;40.40;;;18.02;;
45107;SDS011;30869;51.188;6.556;2022-11-30T05:51:12;49.80;;;25.05;;
45107;SDS011;30869;51.188;6.556;2022-11-30T05:53:44;44.42;;;21.63;;
45107;SDS011;30869;51.188;6.556;2022-11-30T05:56:15;33.28;;;16.90;;
45107;SDS011;30869;51.188;6.556;2022-11-30T05:58:42;56.88;;;28.10;;
45107;SDS011;30869;51.188;6.556;2022-11-30T06:01:19;40.63;;;20.52;;
45107;SDS011;30869;51.188;6.556;2022-11-30T06:03:46;46.92;;;23.88;;
45107;SDS011;30869;51.188;6.556;2022-11-30T06:06:12;36.40;;;19.50;;
45107;SDS011;30869;51.188;6.556;2022-11-30T06:08:38;33.83;;;18.40;;
45107;SDS011;30869;51.188;6.556;2022-11-30T06:11:04;43.10;;;20.80;;
45107;SDS011;30869;51.188;6.556;2022-11-30T06:13:30;42.25;;;20.98;;
45107;SDS011;30869;51.188;6.556;2022-11-30T06:16:01;34.78;;;16.52;;
45107;SDS011;30869;51.188;6.556;2022-11-30T06:18:28;39.88;;;20.52;;
45107;SDS011;30869;51.188;6.556;2022-11-30T06:20:54;34.47;;;17.83;;
45107;SDS011;30869;51.188;6.556;2022-11-30T06:23:23;53.38;;;26.20;;
45107;SDS011;30869;51.188;6.556;2022-11-30T06:25:48;54.22;;;27.27;;
45107;SDS011;30869;51.188;6.556;2022-11-30T06:28:14;32.05;;;16.15;;
45107;SDS011;30869;51.188;6.556;2022-11-30T06:30:41;44.85;;;22.92;;
45107;SDS011;30869;51.188;6.556;2022-11-30T06:33:06;40.75;;;21.23;;
45107;SDS011;30869;51.188;6.556;2022-11-30T06:35:32;32.50;;;16.63;;
45107;SDS011;30869;51.188;6.556;2022-11-30T06:37:57;41.33;;;20.90;;
45107;SDS011;30869;51.188;6.556;2022-11-30T06:40:24;44.92;;;23.10;;
45107;SDS011;30869;51.188;6.556;2022-11-30T06:42:51;46.17;;;23.98;;
45107;SDS011;30869;51.188;6.556;2022-11-30T06:45:18;53.55;;;25.95;;
45107;SDS011;30869;51.188;6.556;2022-11-30T06:47:44;46.58;;;24.23;;
45107;SDS011;30869;51.188;6.556;2022-11-30T06:50:09;48.55;;;25.98;;
45107;SDS011;30869;51.188;6.556;2022-11-30T06:52:36;44.55;;;24.90;;
45107;SDS011;30869;51.188;6.556;2022-11-30T06:55:02;48.88;;;26.45;;
45107;SDS011;30869;51.188;6.556;2022-11-30T06:57:28;49.13;;;25.38;;
45107;SDS011;30869;51.188;6.556;2022-11-30T06:59:54;49.33;;;26.05;;
45107;SDS011;30869;51.188;6.556;2022-11-30T07:02:20;42.40;;;24.80;;
45107;SDS011;30869;51.188;6.556;2022-11-30T07:04:46;47.20;;;25.02;;
45107;SDS011;30869;51.188;6.556;2022-11-30T07:07:12;44.22;;;26.20;;
45107;SDS011;30869;51.188;6.556;2022-11-30T07:09:38;45.05;;;23.55;;
45107;SDS011;30869;51.188;6.556;2022-11-30T07:12:04;49.85;;;25.85;;
45107;SDS011;30869;51.188;6.556;2022-11-30T07:14:30;41.78;;;23.23;;
45107;SDS011;30869;51.188;6.556;2022-11-30T07:16:56;41.83;;;23.13;;
45107;SDS011;30869;51.188;6.556;2022-11-30T07:19:22;42.70;;;23.67;;
45107;SDS011;30869;51.188;6.556;2022-11-30T07:21:48;41.95;;;23.92;;
45107;SDS011;30869;51.188;6.556;2022-11-30T07:24:14;43.90;;;23.02;;
45107;SDS011;30869;51.188;6.556;2022-11-30T07:26:59;44.30;;;23.63;;
45107;SDS011;30869;51.188;6.556;2022-11-30T07:29:26;44.42;;;23.58;;
45107;SDS011;30869;51.188;6.556;2022-11-30T07:31:52;48.47;;;23.80;;
45107;SDS011;30869;51.188;6.556;2022-11-30T07:34:18;46.83;;;23.13;;
45107;SDS011;30869;51.188;6.556;2022-11-30T07:36:45;38.85;;;22.17;;
45107;SDS011;30869;51.188;6.556;2022-11-30T07:39:11;44.28;;;22.55;;
45107;SDS011;30869;51.188;6.556;2022-11-30T07:41:38;45.10;;;23.27;;
45107;SDS011;30869;51.188;6.556;2022-11-30T07:44:05;39.35;;;20.50;;
45107;SDS011;30869;51.188;6.556;2022-11-30T07:46:31;38.90;;;21.20;;
45107;SDS011;30869;51.188;6.556;2022-11-30T07:48:59;39.08;;;21.58;;
45107;SDS011;30869;51.188;6.556;2022-11-30T07:51:28;40.13;;;21.48;;
45107;SDS011;30869;51.188;6.556;2022-11-30T07:53:54;41.00;;;21.88;;
45107;SDS011;30869;51.188;6.556;2022-11-30T07:56:20;38.50;;;20.67;;
45107;SDS011;30869;51.188;6.556;2022-11-30T07:58:47;41.45;;;22.73;;
45107;SDS011;30869;51.188;6.556;2022-11-30T08:01:17;37.75;;;22.20;;
45107;SDS011;30869;51.188;6.556;2022-11-30T08:03:45;35.38;;;20.02;;
45107;SDS011;30869;51.188;6.556;2022-11-30T08:06:12;38.55;;;21.05;;
45107;SDS011;30869;51.188;6.556;2022-11-30T08:08:43;36.42;;;21.40;;
45107;SDS011;30869;51.188;6.556;2022-11-30T08:11:10;37.58;;;21.63;;
45107;SDS011;30869;51.188;6.556;2022-11-30T08:13:38;39.97;;;21.48;;
45107;SDS011;30869;51.188;6.556;2022-11-30T08:16:14;46.15;;;24.23;;
45107;SDS011;30869;51.188;6.556;2022-11-30T08:22:53;42.25;;;22.38;;
45107;SDS011;30869;51.188;6.556;2022-11-30T08:25:32;43.45;;;23.17;;
45107;SDS011;30869;51.188;6.556;2022-11-30T08:28:04;54.70;;;25.90;;
45107;SDS011;30869;51.188;6.556;2022-11-30T08:30:30;56.95;;;26.73;;
45107;SDS011;30869;51.188;6.556;2022-11-30T08:32:55;50.22;;;25.27;;
45107;SDS011;30869;51.188;6.556;2022-11-30T08:35:22;44.42;;;23.88;;
45107;SDS011;30869;51.188;6.556;2022-11-30T08:37:47;44.13;;;23.45;;
45107;SDS011;30869;51.188;6.556;2022-11-30T08:40:14;51.92;;;25.25;;
45107;SDS011;30869;51.188;6.556;2022-11-30T08:42:56;53.53;;;26.00;;
45107;SDS011;30869;51.188;6.556;2022-11-30T08:45:51;63.38;;;30.65;;
45107;SDS011;30869;51.188;6.556;2022-11-30T08:59:36;43.80;;;21.57;;
45107;SDS011;30869;51.188;6.556;2022-11-30T09:05:39;41.67;;;20.88;;
45107;SDS011;30869;51.188;6.556;2022-11-30T09:08:05;43.90;;;20.92;;
45107;SDS011;30869;51.188;6.556;2022-11-30T09:10:31;43.15;;;22.50;;
45107;SDS011;30869;51.188;6.556;2022-11-30T09:12:57;44.97;;;23.48;;
45107;SDS011;30869;51.188;6.556;2022-11-30T09:15:25;43.50;;;21.05;;
45107;SDS011;30869;51.188;6.556;2022-11-30T09:17:51;42.75;;;22.50;;
45107;SDS011;30869;51.188;6.556;2022-11-30T09:20:19;53.88;;;25.90;;
45107;SDS011;30869;51.188;6.556;2022-11-30T09:22:45;40.78;;;20.02;;
45107;SDS011;30869;51.188;6.556;2022-11-30T09:25:11;48.03;;;23.60;;
45107;SDS011;30869;51.188;6.556;2022-11-30T09:27:37;49.60;;;24.98;;
45107;SDS011;30869;51.188;6.556;2022-11-30T09:30:02;39.88;;;20.65;;
45107;SDS011;30869;51.188;6.556;2022-11-30T09:32:28;60.42;;;29.58;;
45107;SDS011;30869;51.188;6.556;2022-11-30T09:34:54;38.38;;;20.33;;
45107;SDS011;30869;51.188;6.556;2022-11-30T09:37:20;41.50;;;20.38;;
45107;SDS011;30869;51.188;6.556;2022-11-30T09:39:46;42.88;;;20.27;;
45107;SDS011;30869;51.188;6.556;2022-11-30T09:42:30;40.83;;;21.25;;
45107;SDS011;30869;51.188;6.556;2022-11-30T09:51:03;42.40;;;21.80;;
45107;SDS011;30869;51.188;6.556;2022-11-30T09:53:39;35.65;;;19.02;;
45107;SDS011;30869;51.188;6.556;2022-11-30T09:56:49;48.78;;;23.88;;
45107;SDS011;30869;51.188;6.556;2022-11-30T09:59:19;44.78;;;21.60;;
45107;SDS011;30869;51.188;6.556;2022-11-30T10:01:53;52.03;;;23.92;;
45107;SDS011;30869;51.188;6.556;2022-11-30T10:04:37;45.97;;;23.27;;
45107;SDS011;30869;51.188;6.556;2022-11-30T10:07:13;53.72;;;25.98;;
45107;SDS011;30869;51.188;6.556;2022-11-30T10:12:25;54.47;;;24.95;;
45107;SDS011;30869;51.188;6.556;2022-11-30T10:25:28;38.03;;;20.17;;
45107;SDS011;30869;51.188;6.556;2022-11-30T10:30:46;40.03;;;21.30;;
45107;SDS011;30869;51.188;6.556;2022-11-30T10:33:17;49.15;;;22.90;;
45107;SDS011;30869;51.188;6.556;2022-11-30T10:35:48;32.97;;;18.65;;
45107;SDS011;30869;51.188;6.556;2022-11-30T10:38:34;39.85;;;20.20;;
45107;SDS011;30869;51.188;6.556;2022-11-30T10:43:41;33.78;;;18.48;;
45107;SDS011;30869;51.188;6.556;2022-11-30T10:46:26;52.28;;;24.13;;
45107;SDS011;30869;51.188;6.556;2022-11-30T10:48:56;36.63;;;20.27;;
45107;SDS011;30869;51.188;6.556;2022-11-30T10:51:36;34.25;;;18.55;;
45107;SDS011;30869;51.188;6.556;2022-11-30T10:54:11;38.75;;;20.58;;
45107;SDS011;30869;51.188;6.556;2022-11-30T10:56:40;45.28;;;21.20;;
45107;SDS011;30869;51.188;6.556;2022-11-30T10:59:09;35.67;;;18.83;;
45107;SDS011;30869;51.188;6.556;2022-11-30T11:01:41;48.40;;;23.15;;
45107;SDS011;30869;51.188;6.556;2022-11-30T11:04:17;40.10;;;20.67;;
45107;SDS011;30869;51.188;6.556;2022-11-30T11:06:50;41.40;;;19.77;;
45107;SDS011;30869;51.188;6.556;2022-11-30T11:09:35;39.92;;;18.65;;
45107;SDS011;30869;51.188;6.556;2022-11-30T11:14:44;33.70;;;18.02;;
45107;SDS011;30869;51.188;6.556;2022-11-30T11:19:42;36.17;;;18.27;;
45107;SDS011;30869;51.188;6.556;2022-11-30T11:22:16;42.88;;;20.45;;
45107;SDS011;30869;51.188;6.556;2022-11-30T11:24:44;44.58;;;20.65;;
45107;SDS011;30869;51.188;6.556;2022-11-30T11:27:27;36.92;;;19.10;;
45107;SDS011;30869;51.188;6.556;2022-11-30T11:30:05;36.08;;;19.20;;
45107;SDS011;30869;51.188;6.556;2022-11-30T11:32:32;58.85;;;26.48;;
45107;SDS011;30869;51.188;6.556;2022-11-30T11:34:58;51.40;;;25.92;;
45107;SDS011;30869;51.188;6.556;2022-11-30T11:37:25;60.60;;;27.92;;
45107;SDS011;30869;51.188;6.556;2022-11-30T11:42:23;61.90;;;25.55;;
45107;SDS011;30869;51.188;6.556;2022-11-30T11:44:52;65.63;;;29.50;;
45107;SDS011;30869;51.188;6.556;2022-11-30T11:47:24;75.32;;;32.47;;
45107;SDS011;30869;51.188;6.556;2022-11-30T11:50:06;56.40;;;27.30;;
45107;SDS011;30869;51.188;6.556;2022-11-30T11:56:07;56.65;;;25.77;;
45107;SDS011;30869;51.188;6.556;2022-11-30T11:59:10;66.53;;;30.75;;
45107;SDS011;30869;51.188;6.556;2022-11-30T12:01:54;60.10;;;28.93;;
45107;SDS011;30869;51.188;6.556;2022-11-30T12:12:31;58.88;;;26.40;;
45107;SDS011;30869;51.188;6.556;2022-11-30T12:14:57;52.20;;;25.08;;
45107;SDS011;30869;51.188;6.556;2022-11-30T12:20:04;53.40;;;25.17;;
45107;SDS011;30869;51.188;6.556;2022-11-30T12:39:43;53.25;;;24.60;;
45107;SDS011;30869;51.188;6.556;2022-11-30T12:42:42;58.40;;;27.38;;
45107;SDS011;30869;51.188;6.556;2022-11-30T12:45:34;65.53;;;26.30;;
45107;SDS011;30869;51.188;6.556;2022-11-30T12:54:06;49.92;;;23.00;;
45107;SDS011;30869;51.188;6.556;2022-11-30T12:56:56;52.97;;;24.83;;
45107;SDS011;30869;51.188;6.556;2022-11-30T12:59:34;54.33;;;25.67;;
45107;SDS011;30869;51.188;6.556;2022-11-30T13:05:36;65.60;;;27.33;;
45107;SDS011;30869;51.188;6.556;2022-11-30T13:08:11;48.53;;;24.30;;
45107;SDS011;30869;51.188;6.556;2022-11-30T13:10:51;58.53;;;27.08;;
45107;SDS011;30869;51.188;6.556;2022-11-30T13:13:23;53.13;;;24.58;;
45107;SDS011;30869;51.188;6.556;2022-11-30T13:15:52;49.58;;;22.70;;
45107;SDS011;30869;51.188;6.556;2022-11-30T13:18:19;51.47;;;24.08;;
45107;SDS011;30869;51.188;6.556;2022-11-30T13:20:49;46.85;;;23.75;;
45107;SDS011;30869;51.188;6.556;2022-11-30T13:25:47;52.22;;;24.77;;
45107;SDS011;30869;51.188;6.556;2022-11-30T13:31:18;41.78;;;20.15;;
45107;SDS011;30869;51.188;6.556;2022-11-30T13:33:46;48.03;;;23.88;;
45107;SDS011;30869;51.188;6.556;2022-11-30T13:39:18;61.60;;;26.50;;
45107;SDS011;30869;51.188;6.556;2022-11-30T13:41:48;55.15;;;24.80;;
45107;SDS011;30869;51.188;6.556;2022-11-30T13:46:49;48.83;;;22.48;;
45107;SDS011;30869;51.188;6.556;2022-11-30T13:49:22;50.65;;;25.50;;
45107;SDS011;30869;51.188;6.556;2022-11-30T13:51:53;57.65;;;27.15;;
45107;SDS011;30869;51.188;6.556;2022-11-30T13:54:36;46.90;;;22.25;;
45107;SDS011;30869;51.188;6.556;2022-11-30T13:58:01;50.25;;;23.48;;
45107;SDS011;30869;51.188;6.556;2022-11-30T13:59:55;66.65;;;26.55;;
45107;SDS011;30869;51.188;6.556;2022-11-30T14:10:33;38.78;;;20.02;;
45107;SDS011;30869;51.188;6.556;2022-11-30T14:13:00;54.33;;;22.08;;
45107;SDS011;30869;51.188;6.556;2022-11-30T14:17:55;56.00;;;23.92;;
45107;SDS011;30869;51.188;6.556;2022-11-30T14:20:22;53.05;;;24.00;;
45107;SDS011;30869;51.188;6.556;2022-11-30T14:22:55;53.05;;;23.73;;
45107;SDS011;30869;51.188;6.556;2022-11-30T14:25:26;48.75;;;23.23;;
45107;SDS011;30869;51.188;6.556;2022-11-30T14:27:52;52.72;;;24.33;;
45107;SDS011;30869;51.188;6.556;2022-11-30T14:30:21;48.40;;;22.90;;
45107;SDS011;30869;51.188;6.556;2022-11-30T14:32:51;48.20;;;24.77;;
45107;SDS011;30869;51.188;6.556;2022-11-30T14:35:35;43.92;;;23.40;;
45107;SDS011;30869;51.188;6.556;2022-11-30T14:38:04;50.30;;;23.88;;
45107;SDS011;30869;51.188;6.556;2022-11-30T14:40:59;62.53;;;24.75;;
45107;SDS011;30869;51.188;6.556;2022-11-30T14:43:25;54.80;;;25.67;;
45107;SDS011;30869;51.188;6.556;2022-11-30T14:46:18;54.25;;;23.83;;
45107;SDS011;30869;51.188;6.556;2022-11-30T14:48:43;50.97;;;23.60;;
45107;SDS011;30869;51.188;6.556;2022-11-30T14:51:09;47.28;;;23.02;;
45107;SDS011;30869;51.188;6.556;2022-11-30T14:59:06;49.47;;;21.88;;
45107;SDS011;30869;51.188;6.556;2022-11-30T15:01:54;51.17;;;23.58;;
45107;SDS011;30869;51.188;6.556;2022-11-30T15:04:21;51.92;;;20.17;;
45107;SDS011;30869;51.188;6.556;2022-11-30T15:06:49;48.35;;;23.48;;
45107;SDS011;30869;51.188;6.556;2022-11-30T15:09:15;44.97;;;21.95;;
45107;SDS011;30869;51.188;6.556;2022-11-30T15:11:45;45.85;;;22.23;;
45107;SDS011;30869;51.188;6.556;2022-11-30T15:14:12;52.13;;;22.80;;
45107;SDS011;30869;51.188;6.556;2022-11-30T15:16:46;54.30;;;23.05;;
45107;SDS011;30869;51.188;6.556;2022-11-30T15:21:50;61.10;;;23.95;;
45107;SDS011;30869;51.188;6.556;2022-11-30T15:24:17;50.40;;;23.20;;
45107;SDS011;30869;51.188;6.556;2022-11-30T15:26:58;49.15;;;21.45;;
45107;SDS011;30869;51.188;6.556;2022-11-30T15:29:30;52.72;;;21.52;;
45107;SDS011;30869;51.188;6.556;2022-11-30T15:32:00;48.55;;;22.65;;
45107;SDS011;30869;51.188;6.556;2022-11-30T15:34:31;46.85;;;21.58;;
45107;SDS011;30869;51.188;6.556;2022-11-30T15:37:11;45.65;;;20.05;;
45107;SDS011;30869;51.188;6.556;2022-11-30T15:39:38;58.60;;;24.95;;
45107;SDS011;30869;51.188;6.556;2022-11-30T15:42:13;45.25;;;22.23;;
45107;SDS011;30869;51.188;6.556;2022-11-30T15:44:44;45.58;;;21.60;;
45107;SDS011;30869;51.188;6.556;2022-11-30T15:50:29;35.38;;;18.27;;
45107;SDS011;30869;51.188;6.556;2022-11-30T15:52:58;48.00;;;20.70;;
45107;SDS011;30869;51.188;6.556;2022-11-30T15:55:44;43.65;;;19.27;;
45107;SDS011;30869;51.188;6.556;2022-11-30T16:04:20;38.30;;;18.58;;
45107;SDS011;30869;51.188;6.556;2022-11-30T16:06:27;43.25;;;19.55;;
45107;SDS011;30869;51.188;6.556;2022-11-30T16:08:56;46.63;;;17.80;;
45107;SDS011;30869;51.188;6.556;2022-11-30T16:11:25;47.80;;;19.00;;
45107;SDS011;30869;51.188;6.556;2022-11-30T16:13:51;36.90;;;17.67;;
45107;SDS011;30869;51.188;6.556;2022-11-30T16:16:21;43.05;;;19.92;;
45107;SDS011;30869;51.188;6.556;2022-11-30T16:18:49;38.78;;;16.48;;
45107;SDS011;30869;51.188;6.556;2022-11-30T16:21:16;47.05;;;17.63;;
45107;SDS011;30869;51.188;6.556;2022-11-30T16:23:43;40.42;;;16.58;;
45107;SDS011;30869;51.188;6.556;2022-11-30T16:26:13;34.95;;;16.65;;
45107;SDS011;30869;51.188;6.556;2022-11-30T16:28:40;53.40;;;15.40;;
45107;SDS011;30869;51.188;6.556;2022-11-30T16:31:13;38.80;;;15.02;;
45107;SDS011;30869;51.188;6.556;2022-11-30T16:33:41;39.00;;;19.05;;
45107;SDS011;30869;51.188;6.556;2022-11-30T16:36:08;47.50;;;14.77;;
45107;SDS011;30869;51.188;6.556;2022-11-30T16:38:39;54.20;;;13.88;;
45107;SDS011;30869;51.188;6.556;2022-11-30T16:41:13;51.63;;;18.10;;
45107;SDS011;30869;51.188;6.556;2022-11-30T16:43:46;52.05;;;17.45;;
45107;SDS011;30869;51.188;6.556;2022-11-30T16:46:15;35.78;;;15.38;;
45107;SDS011;30869;51.188;6.556;2022-11-30T16:48:57;35.97;;;17.25;;
45107;SDS011;30869;51.188;6.556;2022-11-30T16:54:20;45.70;;;19.60;;
45107;SDS011;30869;51.188;6.556;2022-11-30T16:56:49;41.22;;;20.35;;
45107;SDS011;30869;51.188;6.556;2022-11-30T17:01:50;41.83;;;19.38;;
45107;SDS011;30869;51.188;6.556;2022-11-30T17:04:20;40.53;;;16.75;;
45107;SDS011;30869;51.188;6.556;2022-11-30T17:07:07;38.28;;;16.13;;
45107;SDS011;30869;51.188;6.556;2022-11-30T17:12:09;49.90;;;17.47;;
45107;SDS011;30869;51.188;6.556;2022-11-30T17:14:35;42.03;;;14.30;;
45107;SDS011;30869;51.188;6.556;2022-11-30T17:17:01;34.72;;;17.73;;